createdAt,value
2023-04-18T00:00:27.779Z,100.00
2023-04-18T00:02:55.321Z,100.00
2023-04-18T00:05:22.326Z,100.00
2023-04-18T00:07:49.001Z,100.00
2023-04-18T00:10:15.576Z,100.00
2023-04-18T00:12:42.999Z,100.00
2023-04-18T00:15:10.431Z,100.00
2023-04-18T00:17:40.377Z,100.00
2023-04-18T00:20:10.529Z,100.00
2023-04-18T00:22:42.547Z,100.00
2023-04-18T00:25:11.103Z,100.00
2023-04-18T00:27:38.824Z,100.00
2023-04-18T00:30:06.759Z,100.00
2023-04-18T00:32:33.290Z,100.00
2023-04-18T00:34:59.861Z,100.00
2023-04-18T00:37:26.381Z,100.00
2023-04-18T00:39:53.945Z,100.00
2023-04-18T00:42:25.443Z,100.00
2023-04-18T00:44:51.888Z,100.00
2023-04-18T00:47:18.398Z,100.00
2023-04-18T00:49:45.577Z,100.00
2023-04-18T00:52:12.622Z,100.00
2023-04-18T00:54:40.895Z,100.00
2023-04-18T00:57:07.986Z,100.00
2023-04-18T00:59:35.626Z,100.00
2023-04-18T01:02:03.870Z,100.00
2023-04-18T01:04:32.184Z,100.00
2023-04-18T01:06:59.445Z,100.00
2023-04-18T01:09:26.166Z,100.00
2023-04-18T01:11:52.775Z,100.00
2023-04-18T01:14:20.506Z,100.00
2023-04-18T01:16:48.584Z,100.00
2023-04-18T01:19:17.393Z,100.00
2023-04-18T01:21:44.129Z,100.00
2023-04-18T01:24:12.647Z,100.00
2023-04-18T01:26:39.787Z,100.00
2023-04-18T01:29:06.759Z,100.00
2023-04-18T01:31:37.663Z,100.00
2023-04-18T01:34:05.288Z,100.00
2023-04-18T01:36:32.651Z,100.00
2023-04-18T01:38:59.634Z,100.00
2023-04-18T01:41:29.005Z,100.00
2023-04-18T01:43:55.506Z,100.00
2023-04-18T01:46:21.981Z,100.00
2023-04-18T01:48:48.498Z,100.00
2023-04-18T01:51:15.135Z,100.00
2023-04-18T01:53:41.988Z,100.00
2023-04-18T01:56:10.138Z,100.00
2023-04-18T01:58:37.531Z,100.00
2023-04-18T02:01:04.379Z,100.00
2023-04-18T02:03:31.115Z,100.00
2023-04-18T02:05:57.748Z,100.00
2023-04-18T02:08:24.186Z,100.00
2023-04-18T02:10:50.804Z,100.00
2023-04-18T02:13:17.338Z,100.00
2023-04-18T02:15:45.875Z,100.00
2023-04-18T02:18:12.408Z,100.00
2023-04-18T02:20:39.239Z,100.00
2023-04-18T02:23:05.833Z,100.00
2023-04-18T02:25:32.560Z,100.00
2023-04-18T02:27:59.286Z,100.00
2023-04-18T02:30:25.950Z,100.00
2023-04-18T02:32:53.902Z,100.00
2023-04-18T02:35:21.328Z,100.00
2023-04-18T02:37:47.860Z,100.00
2023-04-18T02:40:14.552Z,100.00
2023-04-18T02:42:41.151Z,100.00
2023-04-18T02:45:08.937Z,100.00
2023-04-18T02:47:46.990Z,100.00
2023-04-18T02:50:18.145Z,100.00
2023-04-18T02:52:44.730Z,100.00
2023-04-18T02:55:11.162Z,100.00
2023-04-18T02:57:37.675Z,100.00
2023-04-18T03:00:06.458Z,100.00
2023-04-18T03:02:33.006Z,100.00
2023-04-18T03:04:59.638Z,100.00
2023-04-18T03:07:26.109Z,100.00
2023-04-18T03:09:52.538Z,100.00
2023-04-18T03:12:19.039Z,100.00
2023-04-18T03:14:45.599Z,100.00
2023-04-18T03:17:12.024Z,100.00
2023-04-18T03:19:38.462Z,100.00
2023-04-18T03:22:05.089Z,100.00
2023-04-18T03:24:31.565Z,100.00
2023-04-18T03:26:59.812Z,100.00
2023-04-18T03:29:26.558Z,100.00
2023-04-18T03:31:52.987Z,100.00
2023-04-18T03:34:19.454Z,100.00
2023-04-18T03:36:47.981Z,100.00
2023-04-18T03:39:15.003Z,100.00
2023-04-18T03:41:41.487Z,100.00
2023-04-18T03:44:08.919Z,100.00
2023-04-18T03:46:35.675Z,100.00
2023-04-18T03:49:02.159Z,100.00
2023-04-18T03:51:33.311Z,100.00
2023-04-18T03:53:59.840Z,100.00
2023-04-18T03:56:26.985Z,100.00
2023-04-18T03:58:53.404Z,100.00
2023-04-18T04:01:19.887Z,100.00
2023-04-18T04:03:46.501Z,100.00
2023-04-18T04:06:13.240Z,100.00
2023-04-18T04:08:39.707Z,100.00
2023-04-18T04:11:06.119Z,100.00
2023-04-18T04:13:32.614Z,100.00
2023-04-18T04:15:59.105Z,100.00
2023-04-18T04:18:30.935Z,100.00
2023-04-18T04:20:59.199Z,100.00
2023-04-18T04:23:26.818Z,100.00
2023-04-18T04:25:53.883Z,100.00
2023-04-18T04:28:23.945Z,100.00
2023-04-18T04:30:53.860Z,100.00
2023-04-18T04:33:21.102Z,100.00
2023-04-18T04:35:47.859Z,100.00
2023-04-18T04:38:15.411Z,100.00
2023-04-18T04:40:42.759Z,100.00
2023-04-18T04:43:16.472Z,100.00
2023-04-18T04:45:44.674Z,100.00
2023-04-18T04:48:11.343Z,100.00
2023-04-18T04:50:38.889Z,100.00
2023-04-18T04:53:06.387Z,100.00
2023-04-18T04:55:33.359Z,100.00
2023-04-18T04:58:00.167Z,100.00
2023-04-18T05:00:26.724Z,100.00
2023-04-18T05:02:55.874Z,100.00
2023-04-18T05:05:22.733Z,100.00
2023-04-18T05:07:49.189Z,100.00
2023-04-18T05:10:15.689Z,100.00
2023-04-18T05:12:42.089Z,100.00
2023-04-18T05:15:08.823Z,100.00
2023-04-18T05:17:35.441Z,100.00
2023-04-18T05:20:02.207Z,100.00
2023-04-18T05:22:28.675Z,100.00
2023-04-18T05:24:55.332Z,100.00
2023-04-18T05:27:21.899Z,100.00
2023-04-18T05:29:50.218Z,100.00
2023-04-18T05:32:16.825Z,100.00
2023-04-18T05:34:43.372Z,100.00
2023-04-18T05:37:09.893Z,100.00
2023-04-18T05:39:36.597Z,100.00
2023-04-18T05:42:03.400Z,100.00
2023-04-18T05:44:30.324Z,100.00
2023-04-18T05:46:56.720Z,100.00
2023-04-18T05:49:23.719Z,100.00
2023-04-18T05:51:50.635Z,100.00
2023-04-18T05:54:17.173Z,100.00
2023-04-18T05:56:43.764Z,100.00
2023-04-18T05:59:10.798Z,100.00
2023-04-18T06:01:37.456Z,100.00
2023-04-18T06:04:04.162Z,100.00
2023-04-18T06:06:31.474Z,100.00
2023-04-18T06:08:58.030Z,100.00
2023-04-18T06:11:24.629Z,100.00
2023-04-18T06:13:51.024Z,100.00
2023-04-18T06:16:17.715Z,100.00
2023-04-18T06:18:44.188Z,100.00
2023-04-18T06:21:10.722Z,100.00
2023-04-18T06:23:38.476Z,100.00
2023-04-18T06:26:05.063Z,100.00
2023-04-18T06:28:31.496Z,100.00
2023-04-18T06:30:58.022Z,100.00
2023-04-18T06:33:24.515Z,100.00
2023-04-18T06:35:51.105Z,100.00
2023-04-18T06:38:17.651Z,100.00
2023-04-18T06:40:44.112Z,100.00
2023-04-18T06:43:10.795Z,100.00
2023-04-18T06:45:37.318Z,100.00
2023-04-18T06:48:04.233Z,100.00
2023-04-18T06:50:31.334Z,100.00
2023-04-18T06:52:57.760Z,100.00
2023-04-18T06:55:24.325Z,100.00
2023-04-18T06:57:50.751Z,100.00
2023-04-18T07:00:17.436Z,100.00
2023-04-18T07:02:44.211Z,100.00
2023-04-18T07:05:10.868Z,100.00
2023-04-18T07:07:37.749Z,100.00
2023-04-18T07:10:04.758Z,100.00
2023-04-18T07:12:31.300Z,100.00
2023-04-18T07:14:57.876Z,100.00
2023-04-18T07:17:24.370Z,100.00
2023-04-18T07:19:50.847Z,100.00
2023-04-18T07:22:17.292Z,100.00
2023-04-18T07:24:44.132Z,100.00
2023-04-18T07:27:10.600Z,100.00
2023-04-18T07:29:37.069Z,100.00
2023-04-18T07:32:04.043Z,100.00
2023-04-18T07:34:31.558Z,100.00
2023-04-18T07:36:58.118Z,100.00
2023-04-18T07:39:24.658Z,100.00
2023-04-18T07:41:51.156Z,100.00
2023-04-18T07:44:18.330Z,100.00
2023-04-18T07:46:45.002Z,100.00
2023-04-18T07:49:11.722Z,100.00
2023-04-18T07:51:38.410Z,100.00
2023-04-18T07:54:04.882Z,100.00
2023-04-18T07:56:31.396Z,100.00
2023-04-18T07:58:57.882Z,100.00
2023-04-18T08:01:27.062Z,100.00
2023-04-18T08:03:55.068Z,100.00
2023-04-18T08:06:21.854Z,100.00
2023-04-18T08:08:48.435Z,100.00
2023-04-18T08:11:14.911Z,100.00
2023-04-18T08:13:41.470Z,100.00
2023-04-18T08:16:08.779Z,100.00
2023-04-18T08:18:36.039Z,100.00
2023-04-18T08:21:02.587Z,100.00
2023-04-18T08:23:29.031Z,100.00
2023-04-18T08:25:55.519Z,100.00
2023-04-18T08:28:22.046Z,100.00
2023-04-18T08:30:49.171Z,100.00
2023-04-18T08:33:16.436Z,100.00
2023-04-18T08:35:43.135Z,100.00
2023-04-18T08:38:09.798Z,100.00
2023-04-18T08:40:37.368Z,100.00
2023-04-18T08:43:09.377Z,100.00
2023-04-18T08:45:36.885Z,100.00
2023-04-18T08:48:04.013Z,100.00
2023-04-18T08:50:30.877Z,100.00
2023-04-18T08:52:59.771Z,100.00
2023-04-18T08:55:26.356Z,100.00
2023-04-18T08:57:55.119Z,100.00
2023-04-18T09:00:22.763Z,100.00
2023-04-18T09:02:49.604Z,100.00
2023-04-18T09:05:19.149Z,100.00
2023-04-18T09:07:50.424Z,100.00
2023-04-18T09:10:31.004Z,100.00
2023-04-18T09:12:58.735Z,100.00
2023-04-18T09:15:27.299Z,100.00
2023-04-18T09:17:56.379Z,100.00
2023-04-18T09:20:43.938Z,100.00
2023-04-18T09:23:14.651Z,96.07
2023-04-18T09:25:44.265Z,93.63
2023-04-18T09:28:24.537Z,85.89
2023-04-18T09:30:52.504Z,84.47
2023-04-18T09:33:28.286Z,99.15
2023-04-18T09:35:56.025Z,100.00
2023-04-18T09:38:39.786Z,100.00
2023-04-18T09:41:10.578Z,100.00
2023-04-18T09:43:37.352Z,100.00
2023-04-18T09:46:04.452Z,100.00
2023-04-18T09:48:31.304Z,100.00
2023-04-18T09:51:01.342Z,100.00
2023-04-18T09:53:28.981Z,100.00
2023-04-18T09:55:57.496Z,100.00
2023-04-18T09:58:25.983Z,100.00
2023-04-18T10:00:54.150Z,100.00
2023-04-18T10:03:24.631Z,100.00
2023-04-18T10:05:51.733Z,100.00
2023-04-18T10:08:18.563Z,100.00
2023-04-18T10:10:45.209Z,100.00
2023-04-18T10:13:13.853Z,100.00
2023-04-18T10:15:43.655Z,100.00
2023-04-18T10:18:14.859Z,100.00
2023-04-18T10:20:42.064Z,100.00
2023-04-18T10:23:36.130Z,100.00
2023-04-18T10:26:07.541Z,100.00
2023-04-18T10:28:55.114Z,100.00
2023-04-18T10:31:23.550Z,100.00
2023-04-18T10:34:03.784Z,100.00
2023-04-18T10:37:03.697Z,100.00
2023-04-18T10:39:30.137Z,100.00
2023-04-18T10:41:56.522Z,100.00
2023-04-18T10:44:23.862Z,100.00
2023-04-18T10:46:50.874Z,99.93
2023-04-18T10:49:26.788Z,100.00
2023-04-18T10:51:58.717Z,98.59
2023-04-18T10:54:47.746Z,99.33
2023-04-18T10:57:15.252Z,100.00
2023-04-18T10:59:43.505Z,99.10
2023-04-18T11:02:30.790Z,99.76
2023-04-18T11:05:01.758Z,100.00
2023-04-18T11:07:39.336Z,100.00
2023-04-18T11:10:07.446Z,100.00
2023-04-18T11:12:36.452Z,100.00
2023-04-18T11:15:10.743Z,100.00
2023-04-18T11:17:39.960Z,100.00
2023-04-18T11:20:12.763Z,100.00
2023-04-18T11:22:59.558Z,100.00
2023-04-18T11:25:36.305Z,100.00
2023-04-18T11:28:04.592Z,100.00
2023-04-18T11:30:38.741Z,100.00
2023-04-18T11:33:11.701Z,100.00
2023-04-18T11:35:43.022Z,100.00
2023-04-18T11:38:12.754Z,100.00
2023-04-18T11:40:39.805Z,100.00
2023-04-18T11:43:07.374Z,100.00
2023-04-18T11:45:33.896Z,100.00
2023-04-18T11:48:00.835Z,100.00
2023-04-18T11:50:27.566Z,100.00
2023-04-18T11:52:54.981Z,100.00
2023-04-18T11:55:24.836Z,100.00
2023-04-18T11:57:56.171Z,100.00
2023-04-18T12:00:39.960Z,100.00
2023-04-18T12:03:15.667Z,100.00
2023-04-18T12:05:42.799Z,100.00
2023-04-18T12:08:11.915Z,100.00
2023-04-18T12:10:45.447Z,100.00
2023-04-18T12:13:12.006Z,100.00
2023-04-18T12:15:42.129Z,100.00
2023-04-18T12:18:08.996Z,100.00
2023-04-18T12:20:50.591Z,100.00
2023-04-18T12:23:40.472Z,100.00
2023-04-18T12:26:11.504Z,100.00
2023-04-18T12:28:38.099Z,100.00
2023-04-18T12:31:08.152Z,100.00
2023-04-18T12:33:36.688Z,100.00
2023-04-18T12:36:05.424Z,100.00
2023-04-18T12:38:32.025Z,100.00
2023-04-18T12:40:58.553Z,100.00
2023-04-18T12:43:25.714Z,100.00
2023-04-18T12:45:52.311Z,100.00
2023-04-18T12:48:18.860Z,100.00
2023-04-18T12:50:45.262Z,100.00
2023-04-18T12:53:11.720Z,100.00
2023-04-18T12:55:38.336Z,100.00
2023-04-18T12:58:04.778Z,100.00
2023-04-18T13:00:32.683Z,100.00
2023-04-18T13:02:59.726Z,100.00
2023-04-18T13:05:31.701Z,100.00
2023-04-18T13:08:15.179Z,100.00
2023-04-18T13:10:43.478Z,100.00
2023-04-18T13:13:10.144Z,100.00
2023-04-18T13:15:36.624Z,100.00
2023-04-18T13:18:06.047Z,100.00
2023-04-18T13:20:33.865Z,100.00
2023-04-18T13:23:01.822Z,100.00
2023-04-18T13:25:28.422Z,100.00
2023-04-18T13:27:55.371Z,100.00
2023-04-18T13:30:21.866Z,100.00
2023-04-18T13:32:48.390Z,100.00
2023-04-18T13:35:14.874Z,100.00
2023-04-18T13:37:41.507Z,100.00
2023-04-18T13:40:08.564Z,100.00
2023-04-18T13:42:36.853Z,100.00
2023-04-18T13:45:03.985Z,100.00
2023-04-18T13:47:30.556Z,100.00
2023-04-18T13:49:57.747Z,100.00
2023-04-18T13:52:24.647Z,100.00
2023-04-18T13:54:51.203Z,100.00
2023-04-18T13:57:17.638Z,100.00
2023-04-18T13:59:44.149Z,100.00
2023-04-18T14:02:10.984Z,100.00
2023-04-18T14:04:37.804Z,100.00
2023-04-18T14:07:06.423Z,100.00
2023-04-18T14:09:33.609Z,100.00
2023-04-18T14:12:00.189Z,100.00
2023-04-18T14:14:26.857Z,100.00
2023-04-18T14:16:54.034Z,100.00
2023-04-18T14:19:20.742Z,100.00
2023-04-18T14:21:48.258Z,100.00
2023-04-18T14:24:14.851Z,100.00
2023-04-18T14:26:41.610Z,100.00
2023-04-18T14:29:08.178Z,100.00
2023-04-18T14:31:34.671Z,100.00
2023-04-18T14:34:01.154Z,100.00
2023-04-18T14:36:27.691Z,100.00
2023-04-18T14:38:55.143Z,100.00
2023-04-18T14:41:21.815Z,100.00
2023-04-18T14:43:48.401Z,100.00
2023-04-18T14:46:18.059Z,100.00
2023-04-18T14:48:46.389Z,100.00
2023-04-18T14:51:14.580Z,100.00
2023-04-18T14:53:41.076Z,100.00
2023-04-18T14:56:07.819Z,100.00
2023-04-18T14:58:34.248Z,100.00
2023-04-18T15:01:00.791Z,100.00
2023-04-18T15:03:29.179Z,100.00
2023-04-18T15:05:56.344Z,100.00
2023-04-18T15:08:22.874Z,100.00
2023-04-18T15:10:49.354Z,100.00
2023-04-18T15:13:16.135Z,100.00
2023-04-18T15:15:42.611Z,100.00
2023-04-18T15:18:10.363Z,100.00
2023-04-18T15:20:37.299Z,100.00
2023-04-18T15:23:03.831Z,100.00
2023-04-18T15:25:31.020Z,100.00
2023-04-18T15:27:58.457Z,100.00
2023-04-18T15:30:25.415Z,100.00
2023-04-18T15:32:52.296Z,100.00
2023-04-18T15:35:18.956Z,100.00
2023-04-18T15:37:45.432Z,100.00
2023-04-18T15:40:16.129Z,100.00
2023-04-18T15:42:43.719Z,100.00
2023-04-18T15:45:10.965Z,100.00
2023-04-18T15:47:38.804Z,100.00
2023-04-18T15:50:06.003Z,100.00
2023-04-18T15:52:32.579Z,100.00
2023-04-18T15:54:59.109Z,100.00
2023-04-18T15:57:25.660Z,100.00
2023-04-18T15:59:54.795Z,100.00
2023-04-18T16:02:21.420Z,100.00
2023-04-18T16:04:50.193Z,100.00
2023-04-18T16:07:16.842Z,100.00
2023-04-18T16:09:43.413Z,100.00
2023-04-18T16:12:23.497Z,100.00
2023-04-18T16:15:11.047Z,100.00
2023-04-18T16:17:38.108Z,100.00
2023-04-18T16:20:09.117Z,100.00
2023-04-18T16:22:36.789Z,100.00
2023-04-18T16:25:04.196Z,100.00
2023-04-18T16:27:30.713Z,100.00
2023-04-18T16:29:57.295Z,100.00
2023-04-18T16:32:23.896Z,100.00
2023-04-18T16:34:50.705Z,100.00
2023-04-18T16:37:17.406Z,100.00
2023-04-18T16:39:43.838Z,100.00
2023-04-18T16:42:10.353Z,100.00
2023-04-18T16:44:36.776Z,100.00
2023-04-18T16:47:05.056Z,100.00
2023-04-18T16:49:31.694Z,100.00
2023-04-18T16:51:58.229Z,100.00
2023-04-18T16:54:24.862Z,100.00
2023-04-18T16:56:51.378Z,100.00
2023-04-18T16:59:17.926Z,100.00
2023-04-18T17:01:44.547Z,100.00
2023-04-18T17:04:11.199Z,100.00
2023-04-18T17:06:37.695Z,100.00
2023-04-18T17:09:06.480Z,100.00
2023-04-18T17:11:38.806Z,100.00
2023-04-18T17:14:05.968Z,100.00
2023-04-18T17:16:32.479Z,100.00
2023-04-18T17:18:59.012Z,100.00
2023-04-18T17:21:26.124Z,100.00
2023-04-18T17:23:53.408Z,100.00
2023-04-18T17:26:19.976Z,100.00
2023-04-18T17:28:46.414Z,100.00
2023-04-18T17:31:15.738Z,100.00
2023-04-18T17:33:42.939Z,100.00
2023-04-18T17:36:09.647Z,100.00
2023-04-18T17:38:36.132Z,100.00
2023-04-18T17:41:04.579Z,100.00
2023-04-18T17:43:31.017Z,100.00
2023-04-18T17:45:59.730Z,100.00
2023-04-18T17:48:26.272Z,100.00
2023-04-18T17:50:52.700Z,100.00
2023-04-18T17:53:19.161Z,100.00
2023-04-18T17:55:48.866Z,100.00
2023-04-18T17:58:16.879Z,100.00
2023-04-18T18:00:43.437Z,100.00
2023-04-18T18:03:13.577Z,100.00
2023-04-18T18:05:41.139Z,100.00
2023-04-18T18:08:07.734Z,100.00
2023-04-18T18:10:34.303Z,100.00
2023-04-18T18:13:00.787Z,100.00
2023-04-18T18:15:27.235Z,100.00
2023-04-18T18:17:54.886Z,100.00
2023-04-18T18:20:21.661Z,100.00
2023-04-18T18:22:48.500Z,100.00
2023-04-18T18:25:15.192Z,100.00
2023-04-18T18:27:41.646Z,100.00
2023-04-18T18:30:08.731Z,100.00
2023-04-18T18:32:35.229Z,100.00
2023-04-18T18:35:02.714Z,100.00
2023-04-18T18:37:29.172Z,100.00
2023-04-18T18:39:56.417Z,100.00
2023-04-18T18:42:23.021Z,100.00
2023-04-18T18:44:49.536Z,100.00
2023-04-18T18:47:17.293Z,100.00
2023-04-18T18:49:43.784Z,100.00
2023-04-18T18:52:10.368Z,100.00
2023-04-18T18:54:36.829Z,100.00
2023-04-18T18:57:03.321Z,100.00
2023-04-18T18:59:29.981Z,100.00
2023-04-18T19:01:56.568Z,100.00
2023-04-18T19:04:23.882Z,100.00
2023-04-18T19:06:50.524Z,100.00
2023-04-18T19:09:16.967Z,100.00
2023-04-18T19:11:43.505Z,100.00
2023-04-18T19:14:10.000Z,100.00
2023-04-18T19:16:36.680Z,100.00
2023-04-18T19:19:03.224Z,100.00
2023-04-18T19:21:29.995Z,100.00
2023-04-18T19:23:56.421Z,100.00
2023-04-18T19:26:23.130Z,100.00
2023-04-18T19:28:49.664Z,100.00
2023-04-18T19:31:16.101Z,100.00
2023-04-18T19:33:42.614Z,100.00
2023-04-18T19:36:09.273Z,100.00
2023-04-18T19:38:35.849Z,100.00
2023-04-18T19:41:02.332Z,100.00
2023-04-18T19:43:28.736Z,100.00
2023-04-18T19:45:55.519Z,100.00
2023-04-18T19:48:22.081Z,100.00
2023-04-18T19:50:49.638Z,100.00
2023-04-18T19:53:18.782Z,100.00
2023-04-18T19:55:45.369Z,100.00
2023-04-18T19:58:11.852Z,100.00
2023-04-18T20:00:38.352Z,100.00
2023-04-18T20:03:05.116Z,100.00
2023-04-18T20:05:31.895Z,100.00
2023-04-18T20:07:58.379Z,100.00
2023-04-18T20:10:24.820Z,100.00
2023-04-18T20:12:51.389Z,100.00
2023-04-18T20:15:18.006Z,100.00
2023-04-18T20:17:44.484Z,100.00
2023-04-18T20:20:11.536Z,100.00
2023-04-18T20:22:40.383Z,100.00
2023-04-18T20:25:07.199Z,100.00
2023-04-18T20:27:33.672Z,100.00
2023-04-18T20:30:00.197Z,100.00
2023-04-18T20:32:26.735Z,100.00
2023-04-18T20:34:53.560Z,100.00
2023-04-18T20:37:20.237Z,100.00
2023-04-18T20:39:47.474Z,100.00
2023-04-18T20:42:14.246Z,100.00
2023-04-18T20:44:46.615Z,100.00
2023-04-18T20:47:15.261Z,100.00
2023-04-18T20:49:42.314Z,100.00
2023-04-18T20:52:13.445Z,100.00
2023-04-18T20:54:41.085Z,100.00
2023-04-18T20:57:07.974Z,100.00
2023-04-18T20:59:34.371Z,100.00
2023-04-18T21:02:01.009Z,100.00
2023-04-18T21:04:27.677Z,100.00
2023-04-18T21:06:54.295Z,100.00
2023-04-18T21:09:20.791Z,100.00
2023-04-18T21:11:47.241Z,100.00
2023-04-18T21:14:14.234Z,100.00
2023-04-18T21:16:41.028Z,100.00
2023-04-18T21:19:08.386Z,100.00
2023-04-18T21:21:35.141Z,100.00
2023-04-18T21:24:01.891Z,100.00
2023-04-18T21:26:28.722Z,100.00
2023-04-18T21:29:07.263Z,100.00
2023-04-18T21:31:35.006Z,100.00
2023-04-18T21:34:04.192Z,100.00
2023-04-18T21:36:31.833Z,100.00
2023-04-18T21:39:01.065Z,100.00
2023-04-18T21:41:27.845Z,100.00
2023-04-18T21:43:54.350Z,100.00
2023-04-18T21:46:21.059Z,100.00
2023-04-18T21:48:48.028Z,100.00
2023-04-18T21:51:16.289Z,100.00
2023-04-18T21:53:43.124Z,100.00
2023-04-18T21:56:09.966Z,100.00
2023-04-18T21:58:36.393Z,100.00
2023-04-18T22:01:03.353Z,100.00
2023-04-18T22:03:30.248Z,100.00
2023-04-18T22:05:57.481Z,100.00
2023-04-18T22:08:28.250Z,100.00
2023-04-18T22:10:56.049Z,100.00
2023-04-18T22:13:22.685Z,100.00
2023-04-18T22:15:49.942Z,100.00
2023-04-18T22:18:16.377Z,100.00
2023-04-18T22:20:43.084Z,100.00
2023-04-18T22:23:10.236Z,100.00
2023-04-18T22:25:37.084Z,100.00
2023-04-18T22:28:04.631Z,100.00
2023-04-18T22:30:31.794Z,100.00
2023-04-18T22:32:59.068Z,100.00
2023-04-18T22:35:26.524Z,100.00
2023-04-18T22:37:53.026Z,100.00
2023-04-18T22:40:19.555Z,100.00
2023-04-18T22:42:46.006Z,100.00
2023-04-18T22:45:13.556Z,100.00
2023-04-18T22:47:40.356Z,100.00
2023-04-18T22:50:07.899Z,100.00
2023-04-18T22:52:34.629Z,100.00
2023-04-18T22:55:04.649Z,100.00
2023-04-18T22:57:31.189Z,100.00
2023-04-18T22:59:57.698Z,100.00
2023-04-18T23:02:24.422Z,100.00
2023-04-18T23:04:51.149Z,100.00
2023-04-18T23:07:17.671Z,100.00
2023-04-18T23:09:44.155Z,100.00
2023-04-18T23:12:10.595Z,100.00
2023-04-18T23:14:37.213Z,100.00
2023-04-18T23:17:03.654Z,100.00
2023-04-18T23:19:30.120Z,100.00
2023-04-18T23:21:56.576Z,100.00
2023-04-18T23:24:22.979Z,100.00
2023-04-18T23:26:49.395Z,100.00
2023-04-18T23:29:15.912Z,100.00
2023-04-18T23:31:42.432Z,100.00
2023-04-18T23:34:10.003Z,100.00
2023-04-18T23:36:37.175Z,100.00
2023-04-18T23:39:04.123Z,100.00
2023-04-18T23:41:30.735Z,100.00
2023-04-18T23:43:57.234Z,100.00
2023-04-18T23:46:23.733Z,100.00
2023-04-18T23:48:50.275Z,100.00
2023-04-18T23:51:16.701Z,100.00
2023-04-18T23:53:43.177Z,100.00
2023-04-18T23:56:09.753Z,100.00
2023-04-18T23:58:36.209Z,100.00
